Time;durP1;ratioP1;P1;durP2;ratioP2;P2;SDS_P1;SDS_P2;PMS_P1;PMS_P2;Temp;Humidity;BMP_temperature;BMP_pressure;BME280_temperature;BME280_humidity;BME280_pressure;Samples;Min_cycle;Max_cycle;Signal;HPM_P1;HPM_P2
2022/05/18 00:00:34;;;;;;;38.03;23.53;;;;;;;12.98;76.83;94389.16;4895057;29;20075;-48
2022/05/18 00:03:05;;;;;;;24.08;14.70;;;;;;;12.97;76.89;94387.59;4895585;29;20079;-54
2022/05/18 00:05:34;;;;;;;11.13;7.00;;;;;;;12.92;77.11;94391.59;4895049;29;20059;-48
2022/05/18 00:08:01;;;;;;;10.48;6.22;;;;;;;12.83;76.88;94394.09;4895574;29;20053;-49
2022/05/18 00:10:28;;;;;;;8.95;6.40;;;;;;;12.61;76.88;94381.88;4895178;29;20487;-50
2022/05/18 00:12:55;;;;;;;8.50;6.07;;;;;;;12.63;77.05;94388.53;4895440;29;20072;-50
2022/05/18 00:15:26;;;;;;;8.65;6.45;;;;;;;12.49;77.54;94391.50;4894850;29;20052;-53
2022/05/18 00:17:53;;;;;;;10.85;6.30;;;;;;;12.51;77.64;94394.59;4895395;29;20048;-51
2022/05/18 00:20:20;;;;;;;8.07;6.00;;;;;;;12.39;77.13;94402.25;4894868;29;20071;-50
2022/05/18 00:22:57;;;;;;;8.63;6.10;;;;;;;12.26;77.90;94395.75;4895123;29;20414;-53
2022/05/18 00:25:27;;;;;;;10.93;6.47;;;;;;;12.29;78.43;94402.41;4894943;29;20044;-53
2022/05/18 00:27:54;;;;;;;12.70;7.55;;;;;;;12.09;79.29;94399.53;4895417;29;20072;-49
2022/05/18 00:30:22;;;;;;;12.13;7.50;;;;;;;12.15;79.95;94395.13;4893858;29;20044;-51
2022/05/18 00:32:50;;;;;;;12.32;7.00;;;;;;;12.17;79.96;94389.97;4895292;29;20485;-49
2022/05/18 00:35:18;;;;;;;10.05;6.50;;;;;;;12.12;80.24;94393.22;4894793;29;20087;-47
2022/05/18 00:37:46;;;;;;;10.03;7.10;;;;;;;12.15;79.85;94389.59;4895242;29;20545;-51
2022/05/18 00:40:14;;;;;;;9.88;6.40;;;;;;;12.23;79.65;94387.53;4895153;29;20044;-49
2022/05/18 00:42:41;;;;;;;11.25;6.82;;;;;;;12.28;79.98;94390.63;4893105;29;20051;-52
2022/05/18 00:45:09;;;;;;;10.23;6.38;;;;;;;12.29;79.89;94389.41;4893729;29;20053;-47
2022/05/18 00:47:36;;;;;;;13.23;7.10;;;;;;;12.15;80.21;94392.38;4896606;29;20053;-47
2022/05/18 00:50:12;;;;;;;10.77;7.00;;;;;;;12.02;80.64;94391.38;4920127;29;20048;-49
2022/05/18 00:52:54;;;;;;;11.13;6.90;;;;;;;11.97;80.25;94395.34;4894133;29;20055;-49
2022/05/18 00:55:25;;;;;;;9.32;6.50;;;;;;;11.99;79.89;94392.97;4894634;29;20121;-48
2022/05/18 00:58:01;;;;;;;12.23;6.45;;;;;;;11.88;80.20;94395.06;4895322;29;20095;-53
2022/05/18 01:00:28;;;;;;;9.35;6.00;;;;;;;11.90;80.35;94409.97;4894754;29;20092;-52
2022/05/18 01:02:59;;;;;;;10.73;6.67;;;;;;;11.88;80.59;94395.84;4895050;29;20044;-46
2022/05/18 01:05:30;;;;;;;27.48;17.58;;;;;;;11.88;80.20;94401.34;4894572;29;20075;-47
2022/05/18 01:07:58;;;;;;;16.17;10.23;;;;;;;11.87;80.06;94394.28;4897635;29;20037;-52
2022/05/18 01:10:28;;;;;;;11.38;7.22;;;;;;;11.93;79.99;94389.13;4897910;29;20057;-47
2022/05/18 01:12:56;;;;;;;11.02;6.75;;;;;;;11.95;80.22;94398.53;4898466;29;20048;-46
2022/05/18 01:15:23;;;;;;;11.50;7.13;;;;;;;11.94;80.36;94390.69;4897750;29;20067;-47
2022/05/18 01:17:54;;;;;;;10.48;6.47;;;;;;;11.96;80.32;94391.81;4898442;29;20131;-48
2022/05/18 01:20:23;;;;;;;10.80;7.00;;;;;;;11.98;80.42;94391.41;4912171;29;20048;-55
2022/05/18 01:22:56;;;;;;;9.52;6.50;;;;;;;11.92;80.42;94395.81;4898187;29;20040;-50
2022/05/18 01:25:48;;;;;;;12.55;6.97;;;;;;;11.77;82.18;94398.72;4897565;29;20076;-53
2022/05/18 01:28:14;;;;;;;12.57;7.37;;;;;;;11.64;82.85;94402.41;4897725;29;20040;-47
2022/05/18 01:30:46;;;;;;;11.23;7.38;;;;;;;11.70;82.89;94396.03;4898157;29;20041;-47
2022/05/18 01:33:17;;;;;;;13.63;7.45;;;;;;;11.77;82.33;94393.22;4898137;29;20048;-48
2022/05/18 01:35:46;;;;;;;10.70;6.97;;;;;;;11.79;81.83;94399.09;4897049;29;20213;-48
2022/05/18 01:38:14;;;;;;;56.65;32.45;;;;;;;11.81;81.69;94404.16;4898028;29;20059;-48
2022/05/18 01:40:55;;;;;;;19.60;10.73;;;;;;;11.80;81.33;94416.34;4897116;29;20919;-47
2022/05/18 01:43:34;;;;;;;12.48;7.47;;;;;;;11.77;81.31;94408.91;4897413;29;20051;-49
2022/05/18 01:46:05;;;;;;;10.95;6.93;;;;;;;11.70;81.24;94409.03;4897679;29;20048;-48
2022/05/18 01:48:35;;;;;;;10.32;6.78;;;;;;;11.63;81.33;94417.34;4897448;29;20053;-48
2022/05/18 01:51:05;;;;;;;11.57;6.57;;;;;;;11.60;82.04;94414.22;4897761;29;20048;-48
2022/05/18 01:53:33;;;;;;;9.63;6.50;;;;;;;11.51;81.20;94415.91;4897368;29;20048;-48
2022/05/18 01:56:01;;;;;;;10.18;6.43;;;;;;;11.54;81.65;94426.09;4897827;29;20067;-53
2022/05/18 01:58:28;;;;;;;9.82;6.35;;;;;;;11.28;81.54;94424.78;4897043;29;20103;-50
2022/05/18 02:00:55;;;;;;;10.10;6.57;;;;;;;11.29;81.41;94427.13;4897577;29;20040;-51
2022/05/18 02:03:22;;;;;;;10.52;6.65;;;;;;;11.37;81.02;94425.88;4896857;29;20210;-49
2022/05/18 02:05:51;;;;;;;10.13;6.43;;;;;;;11.37;81.74;94431.34;4897393;29;20082;-49
2022/05/18 02:08:19;;;;;;;10.45;6.47;;;;;;;11.42;81.31;94429.34;4896987;29;20123;-46
2022/05/18 02:10:46;;;;;;;9.95;6.20;;;;;;;11.44;81.15;94430.50;4897356;29;20075;-54
2022/05/18 02:13:12;;;;;;;11.48;6.43;;;;;;;11.51;81.50;94429.63;4897305;29;20049;-51
2022/05/18 02:15:39;;;;;;;9.90;6.22;;;;;;;11.53;81.07;94430.00;4896575;29;20048;-50
2022/05/18 02:18:06;;;;;;;10.23;6.57;;;;;;;11.54;81.39;94431.59;4897263;29;20045;-50
2022/05/18 02:20:34;;;;;;;10.05;6.38;;;;;;;11.49;80.96;94435.56;4896702;29;20056;-46
2022/05/18 02:23:02;;;;;;;11.60;6.50;;;;;;;11.33;80.74;94427.09;4897468;29;20049;-50
2022/05/18 02:25:29;;;;;;;12.45;6.60;;;;;;;11.33;80.82;94421.59;4915339;29;20048;-55
2022/05/18 02:27:55;;;;;;;11.27;6.97;;;;;;;11.30;80.89;94427.91;4915876;29;20058;-50
2022/05/18 02:30:22;;;;;;;11.97;6.50;;;;;;;11.19;81.26;94428.00;4915275;29;20058;-51
2022/05/18 02:32:49;;;;;;;10.10;6.50;;;;;;;11.20;80.87;94435.81;4915832;29;20458;-55
2022/05/18 02:35:16;;;;;;;11.40;6.53;;;;;;;11.12;81.17;94433.56;4915460;29;20381;-48
2022/05/18 02:37:44;;;;;;;10.88;6.63;;;;;;;11.02;81.33;94432.47;4915892;29;20098;-48
2022/05/18 02:40:11;;;;;;;10.65;6.95;;;;;;;10.99;81.78;94442.31;4915634;29;20036;-50
2022/05/18 02:42:38;;;;;;;10.43;6.77;;;;;;;10.97;82.00;94432.91;4915387;29;20079;-46
2022/05/18 02:45:06;;;;;;;12.52;7.18;;;;;;;10.95;82.12;94432.53;4915372;29;20044;-51
2022/05/18 02:47:32;;;;;;;11.70;7.43;;;;;;;10.96;82.48;94434.09;4915110;29;20461;-53
2022/05/18 02:49:59;;;;;;;10.57;7.00;;;;;;;10.99;82.60;94439.56;4913050;29;20413;-50
2022/05/18 02:52:26;;;;;;;12.00;6.70;;;;;;;10.93;82.82;94429.41;4910536;29;20055;-49
2022/05/18 02:57:37;;;;;;;10.23;6.45;;;;;;;11.05;82.91;94439.91;4896120;29;20075;-51
2022/05/18 03:00:07;;;;;;;11.77;6.60;;;;;;;11.07;82.64;94437.53;4896550;29;20052;-50
2022/05/18 03:02:35;;;;;;;10.32;6.60;;;;;;;11.04;82.68;94438.31;4896002;29;20497;-48
2022/05/18 03:05:03;;;;;;;10.13;6.55;;;;;;;10.93;83.65;94432.16;4896381;29;20479;-46
2022/05/18 03:07:29;;;;;;;11.57;7.03;;;;;;;10.95;83.75;94443.53;4896034;29;20053;-47
2022/05/18 03:09:59;;;;;;;11.75;7.35;;;;;;;10.70;84.25;94444.47;4896126;29;20044;-50
2022/05/18 03:12:26;;;;;;;11.30;6.97;;;;;;;10.73;83.89;94449.16;4895686;29;20047;-54
2022/05/18 03:14:52;;;;;;;11.27;6.97;;;;;;;10.74;83.59;94444.44;4896094;29;20060;-46
2022/05/18 03:17:19;;;;;;;11.85;7.45;;;;;;;10.79;83.54;94444.81;4895468;29;20048;-48
2022/05/18 03:19:46;;;;;;;11.97;7.03;;;;;;;10.81;83.42;94435.41;4895885;29;20188;-50
2022/05/18 03:24:57;;;;;;;9.65;6.57;;;;;;;10.83;83.30;94447.53;4910623;29;20782;-52
2022/05/18 03:27:24;;;;;;;11.50;6.93;;;;;;;10.88;83.38;94440.81;4914515;29;20048;-46
2022/05/18 03:29:51;;;;;;;13.90;8.75;;;;;;;10.89;83.23;94450.63;4914282;29;20042;-48
2022/05/18 03:32:22;;;;;;;14.03;7.83;;;;;;;10.78;83.36;94457.00;4914274;29;20044;-52
2022/05/18 03:34:50;;;;;;;12.80;7.10;;;;;;;10.84;83.53;94451.81;4914708;29;20070;-49
2022/05/18 03:37:17;;;;;;;10.23;6.93;;;;;;;10.79;82.79;94457.75;4928649;29;20058;-48
2022/05/18 03:39:45;;;;;;;11.30;6.95;;;;;;;10.61;83.32;94457.88;4914247;29;20289;-52
2022/05/18 03:42:11;;;;;;;10.32;6.78;;;;;;;10.66;82.88;94456.66;4914487;29;20137;-54
2022/05/18 03:44:38;;;;;;;12.43;6.60;;;;;;;10.66;82.83;94457.44;4914080;29;20066;-49
2022/05/18 03:47:05;;;;;;;11.65;7.05;;;;;;;10.69;82.51;94451.16;4914533;29;20044;-51
2022/05/18 03:49:32;;;;;;;11.80;6.88;;;;;;;10.69;83.03;94448.41;4905079;29;20366;-52
2022/05/18 03:52:00;;;;;;;11.38;6.63;;;;;;;10.68;82.56;94457.81;4903641;29;20486;-50
2022/05/18 03:54:34;;;;;;;11.30;7.28;;;;;;;10.64;83.21;94459.81;4895109;29;20390;-51
2022/05/18 03:57:01;;;;;;;11.23;6.57;;;;;;;10.56;83.04;94450.06;4895666;29;20533;-48
2022/05/18 03:59:28;;;;;;;12.30;6.97;;;;;;;10.72;82.68;94458.56;4895164;29;20406;-50
2022/05/18 04:01:55;;;;;;;12.80;6.70;;;;;;;10.49;82.81;94452.88;4895348;29;20413;-52
2022/05/18 04:04:22;;;;;;;12.23;6.88;;;;;;;10.29;83.99;94460.78;4894929;29;20051;-49
2022/05/18 04:06:49;;;;;;;11.60;7.35;;;;;;;10.50;84.77;94466.19;4895440;29;20048;-46
2022/05/18 04:09:17;;;;;;;10.93;6.90;;;;;;;10.61;84.23;94471.59;4894775;29;20401;-55
2022/05/18 04:11:43;;;;;;;14.68;8.10;;;;;;;10.57;84.47;94466.13;4895415;29;20045;-52
2022/05/18 04:14:10;;;;;;;10.18;7.20;;;;;;;10.53;83.99;94472.84;4895275;29;20047;-53
2022/05/18 04:16:37;;;;;;;12.77;7.60;;;;;;;10.63;84.12;94473.97;4894767;29;20052;-51
2022/05/18 04:19:04;;;;;;;10.57;7.28;;;;;;;10.53;84.09;94483.81;4895192;29;20107;-53
2022/05/18 04:21:31;;;;;;;11.97;7.00;;;;;;;10.70;83.96;94487.63;4894650;29;20055;-48
2022/05/18 04:23:57;;;;;;;10.55;7.60;;;;;;;10.73;84.20;94478.59;4902921;29;20051;-50
2022/05/18 04:26:24;;;;;;;11.02;7.38;;;;;;;10.92;83.76;94480.00;4913494;29;20048;-48
2022/05/18 04:28:51;;;;;;;10.13;7.15;;;;;;;11.04;83.20;94485.03;4913998;29;20056;-51
2022/05/18 04:31:18;;;;;;;12.05;7.50;;;;;;;11.11;82.87;94490.47;4913505;29;20046;-50
2022/05/18 04:33:44;;;;;;;13.83;7.90;;;;;;;11.05;83.11;94494.06;4914062;29;20107;-50
2022/05/18 04:36:11;;;;;;;11.98;8.07;;;;;;;11.03;83.24;94494.47;4914116;29;20046;-47
2022/05/18 04:38:38;;;;;;;11.88;7.40;;;;;;;11.19;82.27;94499.44;4913570;29;20052;-47
2022/05/18 04:41:04;;;;;;;11.80;7.60;;;;;;;11.15;82.57;94504.19;4913820;29;20117;-49
2022/05/18 04:43:32;;;;;;;12.88;7.78;;;;;;;11.23;81.87;94504.88;4917214;29;20045;-53
2022/05/18 04:46:00;;;;;;;12.10;7.70;;;;;;;11.12;82.53;94507.72;4917590;29;20122;-47
2022/05/18 04:48:31;;;;;;;13.75;7.25;;;;;;;11.28;81.71;94502.47;4927820;29;20048;-52
2022/05/18 04:50:59;;;;;;;11.45;7.53;;;;;;;11.44;81.79;94512.19;4909615;29;20048;-52
2022/05/18 04:53:26;;;;;;;13.18;7.57;;;;;;;11.49;81.34;94509.78;4898260;29;20087;-48
2022/05/18 04:55:52;;;;;;;13.25;8.27;;;;;;;11.49;81.72;94509.78;4912909;29;20045;-50
2022/05/18 04:58:19;;;;;;;11.00;7.60;;;;;;;11.77;80.95;94519.72;4897926;29;20053;-48
2022/05/18 05:00:56;;;;;;;13.35;8.07;;;;;;;11.66;80.21;94519.03;4898485;29;20052;-51
2022/05/18 05:03:23;;;;;;;14.32;8.23;;;;;;;11.85;79.72;94522.38;4898000;29;20044;-49
2022/05/18 05:05:50;;;;;;;12.63;7.88;;;;;;;11.85;79.40;94528.69;4898495;29;20049;-51
2022/05/18 05:08:17;;;;;;;15.57;8.52;;;;;;;11.90;79.53;94517.25;4897975;29;20048;-53
2022/05/18 05:10:44;;;;;;;12.60;8.37;;;;;;;11.82;80.16;94529.47;4912821;29;20387;-48
2022/05/18 05:13:11;;;;;;;13.23;8.20;;;;;;;12.01;79.80;94522.63;4898253;29;20052;-48
2022/05/18 05:15:38;;;;;;;13.48;7.95;;;;;;;12.26;79.27;94527.84;4897436;29;20044;-49
2022/05/18 05:18:05;;;;;;;11.60;7.65;;;;;;;12.48;78.67;94525.63;4898376;29;20075;-48
2022/05/18 05:20:31;;;;;;;11.80;7.95;;;;;;;12.56;78.69;94529.06;4897625;29;20048;-54
2022/05/18 05:22:58;;;;;;;14.30;8.40;;;;;;;12.60;78.81;94532.53;4898212;29;20041;-49
2022/05/18 05:25:25;;;;;;;13.77;7.90;;;;;;;12.84;78.30;94535.34;4915190;29;20055;-49
2022/05/18 05:27:52;;;;;;;11.88;8.00;;;;;;;12.80;78.04;94538.19;4917054;29;20051;-51
2022/05/18 05:30:19;;;;;;;12.18;8.30;;;;;;;12.97;77.92;94531.63;4916541;29;20052;-49
2022/05/18 05:32:46;;;;;;;13.82;8.32;;;;;;;13.25;77.31;94540.66;4916951;29;20047;-51
2022/05/18 05:35:14;;;;;;;13.80;8.57;;;;;;;13.92;74.55;94532.50;4916724;29;20433;-49
2022/05/18 05:37:40;;;;;;;13.20;8.15;;;;;;;16.40;67.56;94534.38;4915932;29;20645;-54
2022/05/18 05:40:07;;;;;;;12.07;7.75;;;;;;;19.60;56.33;94527.19;4916723;29;20048;-52
2022/05/18 05:42:36;;;;;;;10.85;6.85;;;;;;;21.44;50.53;94527.16;4916010;29;20058;-47
2022/05/18 05:45:04;;;;;;;9.85;7.22;;;;;;;22.16;47.91;94531.28;4916321;29;20052;-51
2022/05/18 05:47:31;;;;;;;10.90;7.00;;;;;;;21.64;48.19;94535.00;4916079;29;20048;-51
2022/05/18 05:49:58;;;;;;;11.60;7.18;;;;;;;23.03;46.63;94520.78;4916350;29;20048;-53
2022/05/18 05:52:24;;;;;;;10.35;7.07;;;;;;;22.48;46.76;94524.09;4915371;29;20048;-52
2022/05/18 05:54:51;;;;;;;10.02;7.10;;;;;;;23.82;43.46;94524.84;4916636;29;20050;-51
2022/05/18 05:57:18;;;;;;;11.60;7.13;;;;;;;23.79;44.31;94513.84;4916099;29;20048;-52
2022/05/18 05:59:45;;;;;;;10.30;7.57;;;;;;;24.67;41.48;94515.50;4916412;29;20094;-49
2022/05/18 06:02:15;;;;;;;8.75;6.57;;;;;;;25.02;41.09;94519.41;4914603;29;20133;-47
2022/05/18 06:04:43;;;;;;;8.63;5.90;;;;;;;25.94;38.85;94528.06;4915195;29;20102;-47
2022/05/18 06:07:10;;;;;;;9.55;6.07;;;;;;;26.90;37.77;94523.63;4916255;29;20044;-49
2022/05/18 06:09:37;;;;;;;7.45;5.60;;;;;;;26.30;37.78;94515.25;4915800;29;20464;-45
2022/05/18 06:12:04;;;;;;;9.00;6.20;;;;;;;27.30;35.26;94522.44;4904730;29;20052;-55
2022/05/18 06:14:31;;;;;;;9.77;6.13;;;;;;;26.50;37.60;94520.69;4900378;29;20059;-50
2022/05/18 06:16:58;;;;;;;8.63;6.07;;;;;;;27.39;35.65;94517.84;4896085;29;20052;-50
2022/05/18 06:19:24;;;;;;;8.55;5.90;;;;;;;27.69;35.49;94516.03;4895838;29;20049;-48
2022/05/18 06:21:51;;;;;;;7.25;5.97;;;;;;;28.82;34.38;94512.16;4896500;29;20048;-51
2022/05/18 06:24:19;;;;;;;7.50;5.50;;;;;;;28.66;33.49;94514.53;4898017;29;20051;-50
2022/05/18 06:26:46;;;;;;;7.20;5.60;;;;;;;28.10;34.83;94511.88;4897544;29;20052;-46
2022/05/18 06:29:13;;;;;;;8.20;5.90;;;;;;;27.62;35.55;94521.41;4897036;29;20047;-51
2022/05/18 06:31:40;;;;;;;8.57;6.10;;;;;;;26.77;37.48;94512.88;4895810;29;20761;-51
2022/05/18 06:34:07;;;;;;;8.35;6.13;;;;;;;28.71;34.10;94509.38;4893303;29;20054;-50
2022/05/18 06:36:34;;;;;;;9.00;5.67;;;;;;;28.58;34.37;94510.72;4904554;29;20064;-51
2022/05/18 06:39:03;;;;;;;8.20;5.95;;;;;;;29.81;32.30;94516.84;4895178;29;20063;-49
2022/05/18 06:41:34;;;;;;;9.18;6.03;;;;;;;30.79;30.18;94512.47;4896344;29;20056;-49
2022/05/18 06:44:03;;;;;;;11.18;6.05;;;;;;;33.30;26.71;94515.50;4896518;29;20048;-53
2022/05/18 06:46:33;;;;;;;7.18;4.50;;;;;;;31.92;27.14;94519.28;4896001;29;20505;-50
2022/05/18 06:49:01;;;;;;;6.20;4.00;;;;;;;33.54;24.44;94519.34;4897190;29;20048;-52
2022/05/18 06:51:31;;;;;;;5.18;3.90;;;;;;;33.93;22.95;94518.41;4909995;29;20045;-53
2022/05/18 06:53:58;;;;;;;6.10;4.30;;;;;;;34.22;25.33;94516.38;4915007;29;20048;-51
2022/05/18 06:56:28;;;;;;;5.32;3.90;;;;;;;35.07;23.15;94518.94;4914679;29;20064;-47
2022/05/18 06:58:55;;;;;;;5.38;3.90;;;;;;;35.84;22.54;94514.22;4915038;29;20040;-52
2022/05/18 07:01:23;;;;;;;6.00;4.13;;;;;;;36.15;21.95;94517.84;4914943;29;20048;-51
2022/05/18 07:03:50;;;;;;;6.30;3.72;;;;;;;36.13;21.05;94517.63;4914737;29;20103;-53
2022/05/18 07:06:25;;;;;;;5.35;3.65;;;;;;;33.43;24.36;94515.47;4914497;29;20066;-50
2022/05/18 07:08:54;;;;;;;5.72;3.85;;;;;;;33.94;24.07;94516.31;4914836;29;20048;-48
2022/05/18 07:11:25;;;;;;;7.32;3.90;;;;;;;32.87;24.24;94516.69;4914647;29;20052;-47
2022/05/18 07:13:53;;;;;;;5.03;3.43;;;;;;;33.38;23.41;94512.75;4915075;29;20044;-54
2022/05/18 07:16:24;;;;;;;4.72;3.63;;;;;;;32.86;23.56;94517.25;4914200;29;20048;-55
2022/05/18 07:18:51;;;;;;;5.43;3.75;;;;;;;34.03;22.84;94510.91;4914988;29;20478;-48
2022/05/18 07:21:19;;;;;;;5.45;3.72;;;;;;;34.04;22.02;94508.81;4913055;29;20058;-54
2022/05/18 07:23:47;;;;;;;5.28;3.80;;;;;;;33.42;23.05;94513.94;4914708;29;20044;-53
2022/05/18 07:26:15;;;;;;;5.63;3.70;;;;;;;30.14;26.69;94514.97;4914921;29;20047;-53
2022/05/18 07:28:43;;;;;;;6.47;4.20;;;;;;;30.22;27.34;94518.78;4913810;29;20286;-53
2022/05/18 07:31:10;;;;;;;5.45;3.78;;;;;;;31.79;25.53;94517.97;4914800;29;20416;-50
2022/05/18 07:33:57;;;;;;;4.50;3.50;;;;;;;32.81;24.04;94511.13;4912928;29;20387;-51
2022/05/18 07:36:24;;;;;;;5.63;4.00;;;;;;;35.50;21.13;94512.44;4912795;29;20051;-50
2022/05/18 07:38:51;;;;;;;4.77;3.60;;;;;;;33.92;22.65;94507.56;4914408;29;20454;-52
2022/05/18 07:41:17;;;;;;;5.85;3.50;;;;;;;35.05;21.35;94504.47;4913885;29;20048;-52
2022/05/18 07:43:44;;;;;;;8.13;3.67;;;;;;;36.16;19.84;94498.59;4914617;29;20048;-52
2022/05/18 07:46:11;;;;;;;5.53;3.42;;;;;;;36.86;19.58;94508.59;4914532;29;20044;-55
2022/05/18 07:48:39;;;;;;;5.28;3.38;;;;;;;36.76;19.68;94505.59;4906498;29;20047;-51
2022/05/18 07:51:06;;;;;;;6.50;3.60;;;;;;;37.54;19.22;94503.13;4906419;29;20053;-50
2022/05/18 07:53:33;;;;;;;4.60;3.35;;;;;;;37.72;18.58;94501.13;4895173;29;20063;-49
2022/05/18 07:56:00;;;;;;;4.50;3.30;;;;;;;36.57;19.76;94500.25;4895437;29;20037;-52
2022/05/18 07:58:27;;;;;;;5.57;3.33;;;;;;;36.31;20.70;94504.31;4894949;29;20099;-55
2022/05/18 08:00:54;;;;;;;6.40;3.50;;;;;;;36.98;19.96;94503.94;4894269;29;20470;-52
2022/05/18 08:03:21;;;;;;;4.90;3.23;;;;;;;36.71;19.28;94500.06;4894936;29;20063;-51
2022/05/18 08:05:47;;;;;;;6.43;3.53;;;;;;;34.32;22.13;94501.63;4895575;29;20048;-48
2022/05/18 08:08:17;;;;;;;4.53;3.10;;;;;;;36.39;19.80;94507.91;4894783;29;20064;-50
2022/05/18 08:16:17;;;;;;;6.37;3.40;;;;;;;36.24;19.52;94501.47;4894386;29;20052;-52
2022/05/18 08:18:45;;;;;;;4.93;3.20;;;;;;;36.05;19.82;94508.31;4895304;29;20092;-53
2022/05/18 08:21:12;;;;;;;5.55;3.15;;;;;;;33.57;22.39;94501.19;4895182;29;20053;-52
2022/05/18 08:23:39;;;;;;;5.10;3.30;;;;;;;31.22;24.64;94508.78;4899876;29;20916;-52
2022/05/18 08:26:06;;;;;;;5.13;3.30;;;;;;;31.89;23.36;94506.94;4914058;29;20043;-51
2022/05/18 08:28:34;;;;;;;4.37;3.13;;;;;;;34.37;21.31;94506.41;4913650;29;20071;-50
2022/05/18 08:31:01;;;;;;;7.53;3.72;;;;;;;28.56;29.47;94513.28;4914135;29;20056;-49
2022/05/18 08:33:31;;;;;;;5.30;3.42;;;;;;;33.64;22.01;94500.50;4913454;29;20054;-50
2022/05/18 08:36:04;;;;;;;4.47;3.10;;;;;;;33.95;21.50;94500.78;4913813;29;20048;-52
2022/05/18 08:38:31;;;;;;;4.80;3.00;;;;;;;31.18;24.65;94517.59;4913266;29;20060;-51
2022/05/18 08:41:07;;;;;;;4.20;2.80;;;;;;;32.92;21.35;94500.81;4914074;29;20050;-53
2022/05/18 08:43:38;;;;;;;4.30;2.63;;;;;;;26.90;28.56;94509.56;4913477;29;20070;-51
2022/05/18 08:46:13;;;;;;;5.38;3.30;;;;;;;28.23;28.40;94514.94;4913615;29;20048;-54
2022/05/18 08:48:56;;;;;;;4.95;2.92;;;;;;;28.29;27.36;94504.41;4905740;29;20293;-51
2022/05/18 08:51:23;;;;;;;4.93;3.30;;;;;;;27.38;29.38;94513.47;4903430;29;20111;-50
2022/05/18 08:54:17;;;;;;;5.10;3.30;;;;;;;27.85;29.43;94500.38;4913977;29;20116;-51
2022/05/18 08:56:44;;;;;;;5.80;3.30;;;;;;;30.63;25.44;94509.28;4913250;29;20691;-51
2022/05/18 08:59:35;;;;;;;5.60;2.90;;;;;;;31.98;23.36;94500.84;4914010;29;20052;-51
2022/05/18 09:02:11;;;;;;;4.85;2.95;;;;;;;33.10;20.66;94502.81;4913066;29;20044;-52
2022/05/18 09:04:48;;;;;;;4.43;2.80;;;;;;;29.74;25.35;94503.31;4913381;29;20117;-52
2022/05/18 09:07:43;;;;;;;4.93;2.90;;;;;;;28.51;27.50;94499.94;4913401;29;20513;-50
2022/05/18 09:10:29;;;;;;;4.57;3.05;;;;;;;27.08;28.53;94511.13;4913867;29;20044;-52
2022/05/18 09:12:57;;;;;;;5.40;2.90;;;;;;;27.43;28.65;94507.84;4911531;29;20052;-54
2022/05/18 09:15:43;;;;;;;3.78;2.78;;;;;;;30.59;24.45;94505.25;4912899;29;20048;-49
2022/05/18 09:18:51;;;;;;;4.63;2.70;;;;;;;30.31;24.46;94503.50;4913679;29;20044;-52
2022/05/18 09:21:37;;;;;;;4.47;2.80;;;;;;;28.48;28.05;94504.56;4912369;29;20930;-51
2022/05/18 09:24:23;;;;;;;4.05;2.83;;;;;;;32.35;23.31;94507.66;4913728;29;20070;-53
2022/05/18 09:27:16;;;;;;;5.25;2.70;;;;;;;28.25;25.88;94508.75;4912828;29;20052;-51
2022/05/18 09:30:04;;;;;;;4.95;2.45;;;;;;;27.89;26.24;94509.38;4915741;29;20793;-57
2022/05/18 09:32:59;;;;;;;5.22;2.97;;;;;;;29.34;25.38;94502.06;4916302;29;20060;-54
2022/05/18 09:36:07;;;;;;;4.23;2.60;;;;;;;27.14;27.46;94509.06;4916288;29;20051;-50
2022/05/18 09:38:46;;;;;;;5.25;2.67;;;;;;;28.62;25.47;94501.97;4869672;29;20078;-52
2022/05/18 09:41:16;;;;;;;6.22;3.03;;;;;;;26.59;29.67;94500.00;4916791;29;20052;-52
2022/05/18 09:44:39;;;;;;;4.10;2.67;;;;;;;30.14;24.84;94492.31;4915739;29;20070;-53
2022/05/18 09:47:09;;;;;;;4.68;2.80;;;;;;;31.67;22.35;94501.66;4883870;29;20254;-52
2022/05/18 09:49:51;;;;;;;5.90;2.60;;;;;;;34.51;20.23;94496.44;4907237;29;20075;-51
2022/05/18 09:52:24;;;;;;;4.75;2.70;;;;;;;30.08;24.59;94491.63;4911474;29;20043;-50
2022/05/18 09:54:53;;;;;;;5.03;2.80;;;;;;;33.24;21.87;94486.44;4897640;29;20099;-51
2022/05/18 09:57:25;;;;;;;4.93;3.17;;;;;;;29.29;26.01;94492.31;4897027;29;20049;-48
2022/05/18 09:59:56;;;;;;;4.63;2.75;;;;;;;31.11;24.58;94486.25;4897240;29;20053;-48
2022/05/18 10:08:24;;;;;;;4.88;1.77;;;;;;;32.37;19.59;94487.97;4895949;29;20966;-50
2022/05/18 10:11:15;;;;;;;3.97;1.95;;;;;;;31.17;21.45;94486.94;4897157;29;20060;-48
2022/05/18 10:13:53;;;;;;;3.83;2.20;;;;;;;30.22;23.44;94476.31;4896483;29;21694;-47
2022/05/18 10:16:33;;;;;;;3.47;2.10;;;;;;;32.84;20.82;94481.63;4896425;29;20056;-50
2022/05/18 10:19:03;;;;;;;4.45;1.90;;;;;;;31.28;21.07;94489.59;4911605;29;20437;-51
2022/05/18 10:21:32;;;;;;;2.67;1.50;;;;;;;30.83;19.87;94481.75;4896669;29;20298;-53
2022/05/18 10:24:06;;;;;;;3.22;1.58;;;;;;;29.31;22.40;94486.91;4905137;29;20055;-50
2022/05/18 10:26:39;;;;;;;3.00;1.77;;;;;;;31.52;21.46;94477.38;4915638;29;20068;-52
2022/05/18 10:29:19;;;;;;;4.17;1.90;;;;;;;33.44;20.04;94459.31;4915888;29;20048;-51
2022/05/18 10:32:04;;;;;;;6.57;1.90;;;;;;;30.40;21.73;94471.97;4913745;29;20839;-48
2022/05/18 10:34:40;;;;;;;2.92;1.40;;;;;;;29.06;21.24;94469.88;4915219;29;20060;-53
2022/05/18 10:37:09;;;;;;;2.83;1.42;;;;;;;29.82;20.67;94469.50;4915613;29;20090;-51
2022/05/18 10:39:47;;;;;;;2.65;1.67;;;;;;;29.60;21.51;94468.44;4914154;29;20048;-54
2022/05/18 10:42:41;;;;;;;3.53;1.80;;;;;;;28.91;22.80;94466.63;4915573;29;20039;-53
2022/05/18 10:45:33;;;;;;;3.78;1.80;;;;;;;28.74;23.37;94463.16;4914744;29;21625;-49
2022/05/18 10:48:15;;;;;;;5.82;1.92;;;;;;;29.94;22.07;94458.84;4901534;29;20128;-50
2022/05/18 10:50:43;;;;;;;4.43;1.40;;;;;;;27.04;24.04;94452.22;4904068;29;20973;-54
2022/05/18 10:53:12;;;;;;;4.72;1.50;;;;;;;28.76;22.74;94449.28;4896694;29;20048;-51
2022/05/18 10:55:57;;;;;;;3.57;1.33;;;;;;;27.39;23.50;94455.84;4895713;29;20066;-50
2022/05/18 10:58:37;;;;;;;3.85;1.55;;;;;;;27.58;24.22;94461.72;4896107;29;20044;-52
2022/05/18 11:01:36;;;;;;;3.80;1.50;;;;;;;26.43;25.18;94452.84;4896339;29;20376;-54
2022/05/18 11:04:21;;;;;;;4.32;1.65;;;;;;;25.96;25.88;94446.78;4895297;29;20044;-57
2022/05/18 11:06:48;;;;;;;3.17;1.60;;;;;;;26.60;26.11;94453.72;4895353;29;21726;-50
2022/05/18 11:09:32;;;;;;;3.83;1.50;;;;;;;25.80;26.47;94446.19;4910027;29;20063;-53
2022/05/18 11:12:06;;;;;;;3.13;1.60;;;;;;;25.77;26.92;94440.78;4896034;29;20047;-51
2022/05/18 11:15:18;;;;;;;4.35;1.90;;;;;;;27.10;26.29;94438.13;4895787;29;20049;-54
2022/05/18 11:18:22;;;;;;;3.00;1.75;;;;;;;27.85;25.91;94421.41;4885034;29;20704;-49
2022/05/18 11:21:07;;;;;;;4.45;1.90;;;;;;;26.41;26.25;94436.47;4894993;29;20875;-50
2022/05/18 11:24:06;;;;;;;3.10;1.80;;;;;;;25.82;26.82;94423.19;4900015;29;20048;-48
2022/05/18 11:26:54;;;;;;;4.70;1.85;;;;;;;26.29;28.17;94434.91;4914412;29;20047;-48
2022/05/18 11:29:42;;;;;;;3.90;1.90;;;;;;;25.98;29.00;94424.56;4914475;29;20674;-48
2022/05/18 11:32:30;;;;;;;4.82;1.92;;;;;;;26.82;26.77;94426.84;4914737;29;20067;-48
2022/05/18 11:35:33;;;;;;;3.83;1.88;;;;;;;25.66;29.63;94435.88;4912726;29;20439;-49
2022/05/18 11:38:08;;;;;;;4.50;2.00;;;;;;;25.10;28.99;94431.38;4913750;29;20248;-47
2022/05/18 11:40:54;;;;;;;3.65;2.08;;;;;;;25.31;29.75;94431.31;4914361;29;20040;-49
2022/05/18 11:43:28;;;;;;;4.68;2.63;;;;;;;25.19;29.67;94427.63;4913944;29;20051;-51
2022/05/18 11:46:33;;;;;;;4.10;2.67;;;;;;;25.40;31.26;94425.50;4914421;29;20048;-53
2022/05/18 11:49:05;;;;;;;3.75;2.50;;;;;;;25.97;30.57;94426.59;4907417;29;20048;-54
2022/05/18 11:51:38;;;;;;;7.30;2.60;;;;;;;25.49;31.67;94430.94;4898493;29;20058;-49
2022/05/18 11:54:31;;;;;;;4.60;2.80;;;;;;;25.02;31.88;94421.88;4895736;29;20040;-48
2022/05/18 11:57:23;;;;;;;5.72;2.60;;;;;;;25.19;32.31;94418.44;4894561;29;20077;-50
2022/05/18 11:59:58;;;;;;;5.43;2.50;;;;;;;25.94;30.49;94412.78;4894573;29;21748;-49
2022/05/18 12:03:02;;;;;;;5.75;2.80;;;;;;;25.38;31.07;94413.25;4895105;29;20063;-51
2022/05/18 12:05:55;;;;;;;4.13;2.50;;;;;;;26.11;30.53;94425.63;4894898;29;20056;-50
2022/05/18 12:08:31;;;;;;;5.00;2.40;;;;;;;25.30;30.82;94415.75;4894937;29;20079;-51